Terminal Aerodrome Forecast
Issued by NWS Sioux Falls, SD

Home | Current Version | Previous Version | Graphics & Text | Print | Product List | Glossary On
Versions: 1 2 3 4 5 6 7 8 9 10 11 12 13 14 15 16 17
000
FTUS43 KFSD 220520
TAFSUX
TAF
KSUX 220520Z 2206/2306 02016G24KT 5SM -RA OVC015
     FM220800 02021G29KT 2SM -SN OVC015
     FM221000 01021G29KT 1/2SM SN BLSN OVC008
     FM221800 35025G33KT 1SM -SN BLSN OVC010
     FM230000 34020G32KT 2SM BLSN OVC020
     FM230300 33015G25KT P6SM BKN020=

USA.gov is the U.S. government's official web portal to all federal, state and local government web resources and services.